Time;durP1;ratioP1;P1;durP2;ratioP2;P2;SDS_P1;SDS_P2;PMS_P1;PMS_P2;Temp;Humidity;BMP_temperature;BMP_pressure;BME280_temperature;BME280_humidity;BME280_pressure;Samples;Min_cycle;Max_cycle;Signal;HPM_P1;HPM_P2
2023/10/26 00:01:17;;;;;;;1.33;1.00;;;;;;;15.04;61.43;95738.09;5025022;28;20188;-69
2023/10/26 00:03:43;;;;;;;1.10;0.70;;;;;;;15.05;61.16;95739.69;5035019;28;20175;-70
2023/10/26 00:06:08;;;;;;;2.17;0.90;;;;;;;15.01;61.44;95738.50;5036724;28;20192;-70
2023/10/26 00:08:33;;;;;;;2.70;0.80;;;;;;;15.02;61.56;95740.94;5033200;28;20186;-70
2023/10/26 00:11:02;;;;;;;1.37;0.93;;;;;;;15.01;61.62;95743.78;5033986;28;20269;-69
2023/10/26 00:13:28;;;;;;;1.30;0.90;;;;;;;15.03;61.46;95742.56;5045989;28;20179;-68
2023/10/26 00:15:54;;;;;;;2.70;0.80;;;;;;;15.08;61.40;95743.72;5039670;28;21030;-70
2023/10/26 00:18:19;;;;;;;2.70;0.70;;;;;;;15.10;61.53;95737.22;5030184;28;20644;-68
2023/10/26 00:20:45;;;;;;;2.13;0.70;;;;;;;15.12;61.60;95745.72;5029819;28;20175;-69
2023/10/26 00:23:11;;;;;;;2.53;1.10;;;;;;;15.12;61.45;95744.91;5034867;28;20254;-68
2023/10/26 00:25:36;;;;;;;1.73;0.80;;;;;;;15.12;61.51;95747.56;5031246;28;20250;-68
2023/10/26 00:28:02;;;;;;;2.03;1.00;;;;;;;15.13;61.51;95743.91;5027273;28;20190;-69
2023/10/26 00:30:27;;;;;;;1.00;0.80;;;;;;;15.13;61.45;95743.91;5037122;28;20197;-69
2023/10/26 00:32:52;;;;;;;4.37;1.10;;;;;;;15.13;61.29;95739.41;5029538;28;20668;-69
2023/10/26 00:35:18;;;;;;;1.33;0.87;;;;;;;15.10;61.56;95733.78;5035009;28;20290;-68
2023/10/26 00:37:43;;;;;;;1.40;0.90;;;;;;;15.09;61.81;95735.63;5027315;28;21531;-68
2023/10/26 00:40:09;;;;;;;3.70;0.90;;;;;;;15.11;61.58;95732.75;5033031;28;20188;-68
2023/10/26 00:42:35;;;;;;;2.17;1.00;;;;;;;15.13;61.52;95734.13;5034793;28;20189;-69
2023/10/26 00:45:00;;;;;;;1.70;1.00;;;;;;;15.13;61.53;95735.97;5039056;28;20203;-68
2023/10/26 00:47:26;;;;;;;1.63;0.87;;;;;;;15.12;61.62;95735.16;5037068;28;20259;-69
2023/10/26 00:49:52;;;;;;;2.57;1.00;;;;;;;15.11;61.41;95738.84;5027572;28;20194;-69
2023/10/26 00:52:18;;;;;;;1.00;0.70;;;;;;;15.03;61.63;95731.19;5027704;28;20178;-68
2023/10/26 00:54:43;;;;;;;1.73;1.00;;;;;;;15.04;61.45;95728.34;5032032;28;20455;-70
2023/10/26 00:57:09;;;;;;;1.60;0.93;;;;;;;15.05;61.44;95726.50;5027003;28;20200;-68
2023/10/26 00:59:35;;;;;;;2.77;0.90;;;;;;;15.02;61.25;95725.13;5034080;28;20709;-70
2023/10/26 01:02:02;;;;;;;1.23;0.90;;;;;;;14.98;61.21;95733.69;5038130;28;20473;-70
2023/10/26 01:04:27;;;;;;;2.77;1.00;;;;;;;14.95;61.16;95724.34;5027051;28;20434;-69
2023/10/26 01:06:53;;;;;;;2.93;1.10;;;;;;;14.88;61.16;95726.25;5028774;28;20419;-70
2023/10/26 01:09:19;;;;;;;1.37;0.80;;;;;;;14.93;61.15;95715.06;5034302;28;20184;-69
2023/10/26 01:11:45;;;;;;;2.80;1.00;;;;;;;14.95;61.00;95715.66;5028166;28;20195;-70
2023/10/26 01:14:11;;;;;;;3.20;0.80;;;;;;;14.95;60.77;95721.72;5038346;28;20427;-70
2023/10/26 01:16:36;;;;;;;1.00;0.70;;;;;;;14.86;60.78;95721.19;5035247;28;20230;-69
2023/10/26 01:19:03;;;;;;;1.33;0.80;;;;;;;14.82;60.85;95725.28;5031173;28;20175;-68
2023/10/26 01:21:29;;;;;;;2.50;0.93;;;;;;;14.82;60.75;95725.28;5027895;28;20242;-70
2023/10/26 01:23:57;;;;;;;3.03;0.70;;;;;;;14.77;60.96;95734.88;5033607;28;20426;-71
2023/10/26 01:26:29;;;;;;;7.43;0.90;;;;;;;14.83;60.72;95729.53;5031030;28;20434;-69
2023/10/26 01:28:54;;;;;;;1.67;0.90;;;;;;;14.84;60.45;95728.53;5033592;28;20413;-70
2023/10/26 01:31:20;;;;;;;1.17;0.90;;;;;;;14.86;60.52;95731.75;5036274;28;20189;-71
2023/10/26 01:33:45;;;;;;;1.97;0.90;;;;;;;14.87;60.36;95735.97;5042029;28;20189;-69
2023/10/26 01:36:12;;;;;;;2.90;0.87;;;;;;;14.84;60.49;95733.78;5038590;28;20319;-71
2023/10/26 01:38:37;;;;;;;1.20;0.70;;;;;;;14.89;60.30;95731.31;5033781;28;20521;-71
2023/10/26 01:41:04;;;;;;;2.80;0.80;;;;;;;14.88;60.17;95731.53;5027295;28;20236;-69
2023/10/26 01:43:30;;;;;;;2.90;0.93;;;;;;;14.86;60.20;95736.22;5033624;28;20186;-70
2023/10/26 01:45:55;;;;;;;1.27;0.80;;;;;;;14.88;60.12;95734.16;5031701;28;20450;-71
2023/10/26 01:48:22;;;;;;;1.97;0.80;;;;;;;14.85;60.13;95730.13;5036528;28;20184;-70
2023/10/26 01:50:48;;;;;;;1.40;0.70;;;;;;;14.85;59.78;95732.78;5035222;28;20819;-70
2023/10/26 01:53:13;;;;;;;5.33;1.10;;;;;;;14.81;60.01;95726.31;5036837;28;20438;-71
2023/10/26 01:55:39;;;;;;;2.13;0.90;;;;;;;14.78;60.14;95726.72;5039377;28;20218;-70
2023/10/26 01:58:04;;;;;;;2.67;1.10;;;;;;;14.73;60.23;95727.38;5025851;28;20703;-69
2023/10/26 02:00:30;;;;;;;4.60;0.97;;;;;;;14.69;60.44;95738.56;5043481;28;20663;-70
2023/10/26 02:02:55;;;;;;;1.80;0.80;;;;;;;14.65;60.48;95732.88;5027353;28;20278;-70
2023/10/26 02:05:21;;;;;;;1.40;0.97;;;;;;;14.66;60.35;95728.41;5023935;28;20204;-69
2023/10/26 02:07:46;;;;;;;3.63;0.83;;;;;;;14.67;60.33;95728.25;5028045;28;20226;-69
2023/10/26 02:10:13;;;;;;;2.33;0.90;;;;;;;14.65;60.49;95730.25;5028146;28;20233;-68
2023/10/26 02:12:39;;;;;;;1.60;1.10;;;;;;;14.66;60.13;95738.97;5028716;28;20187;-69
2023/10/26 02:15:05;;;;;;;2.07;0.80;;;;;;;14.57;60.45;95731.31;5035787;28;20438;-70
2023/10/26 02:17:30;;;;;;;1.67;0.77;;;;;;;14.53;60.49;95732.75;5036137;28;20211;-68
2023/10/26 02:19:55;;;;;;;1.17;0.90;;;;;;;14.49;60.79;95741.31;5030986;28;20518;-68
2023/10/26 02:22:21;;;;;;;5.50;1.10;;;;;;;14.47;61.22;95745.97;5036097;28;20183;-68
2023/10/26 02:24:46;;;;;;;5.63;1.07;;;;;;;14.46;60.79;95741.72;5027749;28;20214;-67
2023/10/26 02:27:12;;;;;;;1.67;0.70;;;;;;;14.42;61.00;95741.34;5031017;28;20203;-69
2023/10/26 02:29:37;;;;;;;1.93;0.90;;;;;;;14.40;61.21;95738.94;5032954;28;20226;-68
2023/10/26 02:32:03;;;;;;;1.10;0.80;;;;;;;14.36;61.34;95740.38;5033429;28;20186;-70
2023/10/26 02:34:28;;;;;;;6.20;0.90;;;;;;;14.27;61.51;95737.16;5031111;28;20287;-69
2023/10/26 02:36:54;;;;;;;1.50;0.77;;;;;;;14.26;61.58;95742.66;5033150;28;20218;-69
2023/10/26 02:39:19;;;;;;;1.50;0.80;;;;;;;14.21;61.50;95735.41;5034199;28;20187;-69
2023/10/26 02:41:45;;;;;;;2.30;0.97;;;;;;;14.13;61.73;95741.72;5028253;28;20191;-69
2023/10/26 02:44:10;;;;;;;2.40;1.33;;;;;;;14.11;61.83;95740.31;5031371;28;20545;-68
2023/10/26 02:46:36;;;;;;;4.90;1.03;;;;;;;14.10;62.21;95746.59;5032579;28;20234;-68
2023/10/26 02:49:01;;;;;;;1.50;1.10;;;;;;;14.02;62.21;95746.81;5028060;28;20179;-69
2023/10/26 02:51:26;;;;;;;1.63;0.87;;;;;;;13.99;62.08;95740.16;5042537;28;20725;-69
2023/10/26 02:53:52;;;;;;;2.30;0.97;;;;;;;13.97;62.12;95750.91;5031147;28;20211;-68
2023/10/26 02:56:17;;;;;;;5.20;1.20;;;;;;;13.94;62.38;95743.41;5037790;28;20581;-70
2023/10/26 02:58:43;;;;;;;4.33;1.10;;;;;;;13.93;62.38;95741.81;5042856;28;20183;-69
2023/10/26 03:01:08;;;;;;;1.60;1.00;;;;;;;13.98;62.18;95736.72;5030455;28;20255;-71
2023/10/26 03:03:34;;;;;;;1.80;0.83;;;;;;;14.00;62.16;95733.03;5049343;28;20248;-68
2023/10/26 03:06:00;;;;;;;3.13;1.00;;;;;;;14.03;62.12;95743.16;5033667;28;20258;-70
2023/10/26 03:08:25;;;;;;;1.47;0.90;;;;;;;14.04;62.00;95739.53;5031692;28;20180;-70
2023/10/26 03:10:50;;;;;;;2.00;0.93;;;;;;;14.03;62.18;95743.16;5039192;28;20922;-71
2023/10/26 03:13:16;;;;;;;1.30;1.00;;;;;;;14.03;62.18;95749.25;5031601;28;20269;-70
2023/10/26 03:15:41;;;;;;;5.10;1.20;;;;;;;13.98;62.06;95742.00;5032497;28;20428;-68
2023/10/26 03:18:07;;;;;;;4.33;1.90;;;;;;;13.93;62.27;95741.81;5043404;28;20262;-68
2023/10/26 03:20:32;;;;;;;1.63;1.20;;;;;;;13.90;62.57;95736.94;5038691;28;20211;-68
2023/10/26 03:22:58;;;;;;;2.40;1.00;;;;;;;13.92;62.45;95744.66;5041714;28;20213;-69
2023/10/26 03:25:24;;;;;;;2.40;1.20;;;;;;;13.82;62.63;95748.53;5034649;28;20207;-68
2023/10/26 03:27:49;;;;;;;2.00;1.10;;;;;;;13.85;62.78;95739.41;5039844;28;20196;-68
2023/10/26 03:30:15;;;;;;;1.67;1.00;;;;;;;13.89;62.56;95735.34;5031270;28;20192;-69
2023/10/26 03:32:41;;;;;;;1.97;1.60;;;;;;;13.88;62.72;95741.59;5037819;28;20180;-69
2023/10/26 03:35:08;;;;;;;1.23;0.90;;;;;;;13.83;62.46;95738.81;5028778;28;20537;-70
2023/10/26 03:37:34;;;;;;;3.23;0.90;;;;;;;13.77;62.72;95729.94;5031286;28;20577;-70
2023/10/26 03:40:00;;;;;;;1.37;1.10;;;;;;;13.81;62.83;95735.56;5040820;28;20429;-71
2023/10/26 03:42:25;;;;;;;2.13;1.03;;;;;;;13.73;62.64;95733.19;5037451;28;20421;-69
2023/10/26 03:44:51;;;;;;;2.83;0.90;;;;;;;13.74;63.14;95740.03;5035494;28;20282;-69
2023/10/26 03:47:18;;;;;;;1.30;0.90;;;;;;;13.76;62.89;95744.09;5031196;28;20210;-69
2023/10/26 03:49:44;;;;;;;1.60;1.10;;;;;;;13.79;63.00;95753.41;5039186;28;20187;-69
2023/10/26 03:52:09;;;;;;;1.83;0.90;;;;;;;13.79;62.75;95737.59;5040829;28;20546;-69
2023/10/26 03:54:35;;;;;;;8.90;3.00;;;;;;;13.74;62.88;95734.78;5032087;28;20191;-70
2023/10/26 03:57:00;;;;;;;1.30;1.10;;;;;;;13.71;63.05;95730.75;5026569;28;20214;-70
2023/10/26 03:59:26;;;;;;;1.97;1.13;;;;;;;13.68;63.24;95731.16;5028343;28;20287;-70
2023/10/26 04:01:51;;;;;;;1.80;1.13;;;;;;;13.67;62.64;95738.25;5033858;28;20245;-70
2023/10/26 04:04:17;;;;;;;2.33;1.63;;;;;;;13.65;62.91;95732.38;5029034;28;20184;-69
2023/10/26 04:06:42;;;;;;;3.20;0.90;;;;;;;13.62;63.22;95737.25;5029157;28;20200;-69
2023/10/26 04:09:08;;;;;;;1.87;1.07;;;;;;;13.61;63.11;95727.75;5029512;28;20283;-70
2023/10/26 04:11:33;;;;;;;2.13;1.47;;;;;;;13.61;63.22;95722.47;5028642;28;20194;-69
2023/10/26 04:13:59;;;;;;;1.50;1.40;;;;;;;13.61;63.47;95723.28;5025803;28;20704;-68
2023/10/26 04:16:25;;;;;;;1.83;1.40;;;;;;;13.57;62.98;95719.47;5029144;28;20212;-69
2023/10/26 04:18:50;;;;;;;2.53;1.17;;;;;;;13.59;63.13;95716.63;5028520;28;20186;-69
2023/10/26 04:21:16;;;;;;;1.50;1.40;;;;;;;13.57;63.36;95722.09;5037945;28;20219;-70
2023/10/26 04:23:41;;;;;;;3.80;1.90;;;;;;;13.55;63.48;95721.47;5029247;28;20187;-70
2023/10/26 04:26:09;;;;;;;3.67;2.20;;;;;;;13.55;63.42;95713.59;5034563;28;20679;-70
2023/10/26 04:28:36;;;;;;;2.43;1.43;;;;;;;13.51;63.75;95720.28;5012373;28;20176;-69
2023/10/26 04:31:04;;;;;;;3.30;1.70;;;;;;;13.55;63.47;95721.47;5009086;28;20442;-70
2023/10/26 04:33:29;;;;;;;3.77;1.57;;;;;;;13.50;63.54;95731.81;5002190;28;20458;-69
2023/10/26 04:35:55;;;;;;;2.40;1.20;;;;;;;13.51;63.30;95725.53;5035911;28;20459;-69
2023/10/26 04:38:20;;;;;;;3.00;1.30;;;;;;;13.54;63.16;95729.59;5042120;28;20207;-69
2023/10/26 04:40:46;;;;;;;1.60;1.00;;;;;;;13.57;63.04;95732.63;5028243;28;20211;-69
2023/10/26 04:43:11;;;;;;;6.00;1.27;;;;;;;13.58;62.91;95718.44;5030299;28;20194;-70
2023/10/26 04:45:36;;;;;;;1.60;1.40;;;;;;;13.61;63.09;95723.28;5033271;28;20624;-69
2023/10/26 04:48:02;;;;;;;4.53;1.70;;;;;;;13.64;62.91;95719.44;5028875;28;20748;-68
2023/10/26 04:50:30;;;;;;;2.20;1.30;;;;;;;13.67;62.71;95711.94;5031526;28;20218;-69
2023/10/26 04:52:55;;;;;;;1.57;1.43;;;;;;;13.71;62.64;95708.88;5029215;28;20194;-70
2023/10/26 04:55:20;;;;;;;3.33;1.30;;;;;;;13.70;62.50;95712.53;5032442;28;20525;-69
2023/10/26 04:57:46;;;;;;;1.57;1.30;;;;;;;13.69;62.47;95706.44;5036856;28;20329;-69
2023/10/26 05:00:12;;;;;;;3.20;1.27;;;;;;;13.67;62.35;95704.03;5034692;28;20191;-68
2023/10/26 05:02:39;;;;;;;2.30;1.40;;;;;;;13.61;62.60;95710.13;5036330;28;20179;-68
2023/10/26 05:05:05;;;;;;;2.80;1.90;;;;;;;13.61;63.04;95698.78;5028277;28;20207;-69
2023/10/26 05:07:31;;;;;;;2.83;1.50;;;;;;;13.61;62.86;95699.59;5028325;28;20513;-68
2023/10/26 05:09:57;;;;;;;1.33;1.20;;;;;;;13.64;62.86;95698.38;5028801;28;20537;-70
2023/10/26 05:12:22;;;;;;;1.70;1.10;;;;;;;13.66;62.76;95701.63;5036912;28;20180;-70
2023/10/26 05:14:48;;;;;;;1.40;1.27;;;;;;;13.66;62.78;95707.69;5027324;28;20844;-69
2023/10/26 05:17:13;;;;;;;3.23;1.53;;;;;;;13.66;62.53;95699.78;5031161;28;20578;-69
2023/10/26 05:19:39;;;;;;;2.87;1.33;;;;;;;13.69;62.50;95695.91;5034397;28;20183;-70
2023/10/26 05:22:04;;;;;;;1.40;1.27;;;;;;;13.63;62.83;95692.28;5028184;28;20267;-69
2023/10/26 05:24:31;;;;;;;3.40;1.30;;;;;;;13.60;63.14;95698.00;5038938;28;20187;-69
2023/10/26 05:26:56;;;;;;;4.63;1.47;;;;;;;13.61;62.88;95694.31;5030308;28;20175;-70
2023/10/26 05:29:22;;;;;;;9.90;1.73;;;;;;;13.54;63.39;95690.91;5036368;28;20513;-70
2023/10/26 05:31:47;;;;;;;2.63;1.33;;;;;;;13.49;63.32;95688.91;5025223;28;20203;-68
2023/10/26 05:34:13;;;;;;;2.80;1.40;;;;;;;13.52;63.37;95696.41;5026671;28;20271;-70
2023/10/26 05:36:39;;;;;;;6.60;1.60;;;;;;;13.50;63.53;95684.44;5026685;28;20268;-69
2023/10/26 05:39:05;;;;;;;8.13;1.43;;;;;;;13.55;63.83;95682.00;5026742;28;20187;-70
2023/10/26 05:41:30;;;;;;;1.50;1.30;;;;;;;13.55;63.45;95679.38;5028523;28;20425;-69
2023/10/26 05:43:55;;;;;;;3.97;1.80;;;;;;;13.53;63.50;95676.13;5038834;28;20633;-68
2023/10/26 05:46:21;;;;;;;2.43;2.00;;;;;;;13.55;63.53;95674.13;5029090;28;20290;-71
2023/10/26 05:48:46;;;;;;;4.50;1.90;;;;;;;13.56;63.61;95665.19;5032199;28;20273;-69
2023/10/26 05:51:12;;;;;;;8.07;2.13;;;;;;;13.56;63.80;95659.94;5031310;28;20252;-71
2023/10/26 05:53:37;;;;;;;1.83;1.30;;;;;;;13.60;63.90;95665.59;5038616;28;20298;-70
2023/10/26 05:56:04;;;;;;;1.80;1.40;;;;;;;13.64;63.77;95672.84;5024126;28;20251;-70
2023/10/26 05:58:29;;;;;;;1.90;1.40;;;;;;;13.67;63.76;95664.53;5027936;28;20183;-70
2023/10/26 06:00:55;;;;;;;4.70;1.77;;;;;;;13.66;63.71;95654.25;5038711;28;20490;-71
2023/10/26 06:03:20;;;;;;;3.40;1.50;;;;;;;13.70;63.92;95658.03;5036820;28;20186;-71
2023/10/26 06:05:47;;;;;;;1.63;1.53;;;;;;;13.74;63.76;95658.44;5034666;28;20206;-70
2023/10/26 06:08:13;;;;;;;4.80;2.10;;;;;;;13.75;63.72;95666.13;5032585;28;20188;-69
2023/10/26 06:10:38;;;;;;;4.67;1.70;;;;;;;13.79;63.71;95659.44;5032802;28;20425;-69
2023/10/26 06:13:04;;;;;;;3.80;1.77;;;;;;;13.81;63.61;95664.50;5028510;28;20691;-70
2023/10/26 06:15:29;;;;;;;2.63;1.77;;;;;;;13.82;63.72;95659.00;5045097;28;20688;-70
2023/10/26 06:17:55;;;;;;;2.43;1.77;;;;;;;13.86;63.71;95653.31;5031918;28;20306;-69
2023/10/26 06:20:22;;;;;;;4.53;1.60;;;;;;;13.89;63.80;95658.16;5025990;28;20266;-69
2023/10/26 06:22:48;;;;;;;7.80;2.33;;;;;;;13.94;63.68;95655.69;5039812;28;20669;-70
2023/10/26 06:25:13;;;;;;;3.77;2.13;;;;;;;13.93;63.59;95665.44;5029377;28;20537;-70
2023/10/26 06:27:39;;;;;;;2.00;1.80;;;;;;;13.97;63.88;95671.09;5027968;28;20178;-70
2023/10/26 06:30:05;;;;;;;5.20;1.83;;;;;;;14.01;63.86;95671.47;5027277;28;20207;-70
2023/10/26 06:32:30;;;;;;;2.70;1.30;;;;;;;13.98;63.95;95660.34;5026586;28;20184;-69
2023/10/26 06:34:56;;;;;;;2.17;1.60;;;;;;;14.03;63.93;95664.16;5029242;28;20465;-68
2023/10/26 06:37:23;;;;;;;2.33;1.57;;;;;;;14.06;64.14;95663.75;5040939;28;20254;-68
2023/10/26 06:39:48;;;;;;;2.47;1.53;;;;;;;14.07;64.03;95660.88;5032426;28;20187;-70
2023/10/26 06:42:14;;;;;;;1.60;1.50;;;;;;;14.09;64.21;95665.97;5043673;28;20446;-70
2023/10/26 06:44:40;;;;;;;3.77;1.50;;;;;;;14.11;64.20;95654.19;5035015;28;20197;-71
2023/10/26 06:47:05;;;;;;;2.67;1.80;;;;;;;14.10;64.31;95647.31;5032541;28;20517;-71
2023/10/26 06:49:31;;;;;;;5.50;1.50;;;;;;;14.12;64.36;95663.69;5038173;28;20188;-70
2023/10/26 06:51:56;;;;;;;4.37;1.70;;;;;;;14.13;64.58;95673.22;5032997;28;20563;-71
2023/10/26 06:54:22;;;;;;;2.03;1.27;;;;;;;14.11;64.44;95670.00;5032220;28;20221;-70
2023/10/26 06:56:47;;;;;;;5.07;1.57;;;;;;;14.10;64.76;95657.84;5031457;28;20204;-70
2023/10/26 06:59:12;;;;;;;2.60;1.43;;;;;;;14.11;64.91;95656.81;5035524;28;20183;-71
2023/10/26 07:01:38;;;;;;;2.53;1.50;;;;;;;14.14;65.03;95658.22;5032704;28;20184;-71
2023/10/26 07:04:04;;;;;;;2.13;1.33;;;;;;;14.14;64.99;95668.75;5033125;28;20184;-71
2023/10/26 07:06:30;;;;;;;4.40;1.40;;;;;;;14.19;65.05;95662.84;5038084;28;20700;-70
2023/10/26 07:08:55;;;;;;;1.70;1.50;;;;;;;14.13;64.99;95665.31;5031235;28;20237;-69
2023/10/26 07:11:21;;;;;;;2.07;1.47;;;;;;;14.21;65.45;95660.81;5037379;28;20271;-70
2023/10/26 07:13:46;;;;;;;2.67;1.63;;;;;;;14.25;65.19;95651.47;5039287;28;20179;-70
2023/10/26 07:16:12;;;;;;;5.77;1.80;;;;;;;14.28;65.11;95646.56;5038507;28;20203;-70
2023/10/26 07:18:37;;;;;;;3.83;1.60;;;;;;;14.33;65.24;95658.31;5045856;28;20184;-71
2023/10/26 07:21:07;;;;;;;2.47;1.70;;;;;;;14.40;65.01;95664.31;5034575;28;20271;-71
2023/10/26 07:23:33;;;;;;;2.63;1.70;;;;;;;14.43;65.11;95648.09;5026739;28;20291;-72
2023/10/26 07:25:59;;;;;;;8.00;2.80;;;;;;;14.49;65.81;95654.31;5035124;28;20441;-70
2023/10/26 07:28:24;;;;;;;5.83;2.13;;;;;;;14.58;66.16;95656.50;5034007;28;20425;-72
2023/10/26 07:30:52;;;;;;;3.57;1.60;;;;;;;14.65;65.38;95658.25;5035558;28;20648;-72
2023/10/26 07:33:19;;;;;;;2.73;1.60;;;;;;;14.67;65.02;95658.84;5026774;28;20636;-71
2023/10/26 07:35:51;;;;;;;3.67;2.10;;;;;;;14.68;64.88;95657.84;5031558;28;20523;-71
2023/10/26 07:38:17;;;;;;;3.97;2.10;;;;;;;14.70;64.87;95650.53;5038775;28;20430;-72
2023/10/26 07:40:53;;;;;;;6.10;2.10;;;;;;;14.69;64.82;95656.84;5028788;28;20809;-70
2023/10/26 07:43:20;;;;;;;2.67;1.90;;;;;;;14.74;64.89;95657.00;5039022;28;20278;-70
2023/10/26 07:45:51;;;;;;;3.90;2.60;;;;;;;14.74;65.13;95654.38;5030646;28;20443;-71
2023/10/26 07:48:17;;;;;;;3.97;2.83;;;;;;;14.67;65.33;95659.69;5027598;28;20427;-71
2023/10/26 07:50:42;;;;;;;5.60;3.07;;;;;;;14.69;65.62;95644.44;5038781;28;20426;-72
2023/10/26 07:53:08;;;;;;;5.40;3.40;;;;;;;14.68;65.87;95644.69;5036978;28;20192;-72
2023/10/26 07:55:34;;;;;;;12.97;3.50;;;;;;;14.69;65.76;95646.28;5040934;28;20743;-71
2023/10/26 07:57:59;;;;;;;4.63;3.10;;;;;;;14.70;65.83;95642.63;5033038;28;20516;-71
2023/10/26 08:00:25;;;;;;;7.87;3.57;;;;;;;14.76;65.91;95652.31;5038833;28;20201;-71
2023/10/26 08:02:51;;;;;;;3.77;2.13;;;;;;;14.75;66.36;95640.13;5043010;28;20186;-71
2023/10/26 08:05:16;;;;;;;4.37;2.43;;;;;;;14.68;66.19;95649.94;5039008;28;20751;-71
2023/10/26 08:07:42;;;;;;;4.90;2.70;;;;;;;14.62;66.42;95645.53;5031268;28;20433;-72
2023/10/26 08:10:09;;;;;;;3.90;2.30;;;;;;;14.63;66.36;95641.84;5038467;28;20676;-71
2023/10/26 08:12:35;;;;;;;3.17;1.53;;;;;;;14.66;66.52;95639.59;5032815;28;20554;-71
2023/10/26 08:15:02;;;;;;;3.57;1.70;;;;;;;14.70;66.30;95638.16;5043110;28;20450;-71
2023/10/26 08:17:28;;;;;;;7.13;4.00;;;;;;;14.79;66.35;95636.06;5030945;28;20208;-71
2023/10/26 08:19:54;;;;;;;8.20;3.13;;;;;;;14.73;66.54;95629.03;5036226;28;20913;-71
2023/10/26 08:22:21;;;;;;;8.20;3.20;;;;;;;14.76;66.52;95620.66;5037447;28;20442;-71
2023/10/26 08:24:47;;;;;;;7.33;2.63;;;;;;;14.84;66.65;95627.47;5038349;28;20472;-72
2023/10/26 08:27:13;;;;;;;6.57;2.90;;;;;;;14.86;66.82;95628.06;5034237;28;20835;-70
2023/10/26 08:29:38;;;;;;;4.83;2.10;;;;;;;14.77;67.08;95627.53;5039139;28;20446;-70
2023/10/26 08:32:04;;;;;;;5.43;2.10;;;;;;;14.86;67.17;95625.44;5031160;28;20180;-70
2023/10/26 08:34:29;;;;;;;3.67;2.30;;;;;;;14.93;66.92;95625.38;5033751;28;20259;-71
2023/10/26 08:36:55;;;;;;;4.90;2.50;;;;;;;14.99;67.13;95635.06;5038026;28;21584;-70
2023/10/26 08:39:20;;;;;;;7.87;3.57;;;;;;;15.04;67.24;95638.66;5031015;28;20196;-71
2023/10/26 08:41:50;;;;;;;4.03;2.47;;;;;;;15.09;66.98;95626.63;5038441;28;20225;-70
2023/10/26 08:44:17;;;;;;;2.33;1.60;;;;;;;15.14;66.89;95639.97;5031239;28;20191;-72
2023/10/26 08:46:44;;;;;;;2.73;2.00;;;;;;;15.19;66.79;95640.94;5029896;28;20444;-71
2023/10/26 08:49:09;;;;;;;3.40;2.63;;;;;;;15.25;66.64;95651.66;5031817;28;20431;-70
2023/10/26 08:51:35;;;;;;;2.73;2.40;;;;;;;15.30;66.79;95659.69;5036167;28;20484;-70
2023/10/26 08:54:01;;;;;;;4.00;3.30;;;;;;;15.38;66.94;95663.88;5029735;28;20195;-70
2023/10/26 08:56:26;;;;;;;6.00;5.00;;;;;;;15.45;67.09;95662.78;5031421;28;20255;-71
2023/10/26 08:58:59;;;;;;;2.10;1.73;;;;;;;15.50;66.95;95662.13;5033404;28;20179;-71
2023/10/26 09:01:24;;;;;;;2.67;2.03;;;;;;;15.53;66.85;95664.31;5030610;28;20214;-72
2023/10/26 09:03:50;;;;;;;8.80;2.80;;;;;;;15.55;66.45;95653.53;5035023;28;20423;-70
2023/10/26 09:06:15;;;;;;;3.00;2.20;;;;;;;15.56;66.54;95640.13;5028339;28;20314;-71
2023/10/26 09:08:41;;;;;;;4.47;2.00;;;;;;;15.58;66.25;95653.09;4999207;28;20178;-72
2023/10/26 09:11:21;;;;;;;1.80;1.50;;;;;;;15.58;66.46;95645.16;5033889;28;20191;-71
2023/10/26 09:13:47;;;;;;;1.83;1.13;;;;;;;15.52;66.70;95649.50;5020784;28;20265;-72
2023/10/26 09:16:13;;;;;;;3.57;1.43;;;;;;;15.50;66.80;95660.25;5029039;28;20509;-70
2023/10/26 09:18:38;;;;;;;2.50;1.40;;;;;;;15.54;66.89;95651.91;4992635;28;20493;-70
2023/10/26 09:21:08;;;;;;;1.57;1.33;;;;;;;15.45;67.79;95654.03;5028977;28;20206;-71
2023/10/26 09:23:35;;;;;;;1.33;1.10;;;;;;;15.41;67.77;95648.41;5029772;28;20241;-71
2023/10/26 09:26:04;;;;;;;2.97;1.20;;;;;;;15.40;68.09;95646.78;5037959;28;20446;-71
2023/10/26 09:28:51;;;;;;;2.90;1.40;;;;;;;15.42;68.28;95634.19;5037498;28;20534;-69
2023/10/26 09:31:17;;;;;;;1.83;1.47;;;;;;;15.41;68.07;95637.84;5028807;28;20430;-71
2023/10/26 09:33:43;;;;;;;1.73;1.23;;;;;;;15.43;68.01;95643.72;5022414;28;21078;-71
2023/10/26 09:36:13;;;;;;;2.47;1.23;;;;;;;15.42;68.09;95642.09;5040353;28;20215;-70
2023/10/26 09:38:39;;;;;;;2.33;1.70;;;;;;;15.42;68.09;95655.28;5023641;28;20816;-71
2023/10/26 09:41:16;;;;;;;4.87;1.50;;;;;;;15.33;68.31;95646.84;5040759;28;20425;-69
2023/10/26 09:43:42;;;;;;;3.73;1.47;;;;;;;15.29;68.59;95644.88;5035099;28;20976;-71
2023/10/26 09:46:08;;;;;;;2.60;1.60;;;;;;;15.23;68.96;95656.34;5035074;28;20434;-70
2023/10/26 09:48:34;;;;;;;2.77;1.47;;;;;;;15.26;68.85;95671.69;5032135;28;20728;-70
2023/10/26 09:51:04;;;;;;;2.50;1.80;;;;;;;15.20;69.29;95671.56;5034439;28;20437;-71
2023/10/26 09:53:34;;;;;;;1.90;1.40;;;;;;;15.10;69.69;95673.09;5039963;28;20422;-70
2023/10/26 09:56:02;;;;;;;3.30;2.40;;;;;;;15.13;69.62;95652.34;5037252;28;20458;-72
2023/10/26 09:58:32;;;;;;;2.47;1.50;;;;;;;15.15;69.91;95645.03;5014803;28;20482;-71
2023/10/26 10:00:57;;;;;;;3.50;1.77;;;;;;;15.17;69.86;95642.19;5028467;28;20425;-70
2023/10/26 10:03:23;;;;;;;3.97;3.33;;;;;;;15.24;70.02;95647.41;5035315;28;20434;-71
2023/10/26 10:05:49;;;;;;;8.83;2.00;;;;;;;15.23;69.99;95638.66;5029107;28;20529;-71
2023/10/26 10:09:13;;;;;;;4.80;2.37;;;;;;;15.22;70.26;95629.13;5043037;28;20190;-71
2023/10/26 10:11:39;;;;;;;2.70;2.07;;;;;;;15.29;70.22;95629.88;5032462;28;20429;-71
2023/10/26 10:14:04;;;;;;;5.40;2.50;;;;;;;15.33;70.53;95632.88;5024974;28;20813;-70
2023/10/26 10:16:36;;;;;;;2.27;2.07;;;;;;;15.30;70.04;95625.38;5028286;28;20222;-71
2023/10/26 10:19:17;;;;;;;1.60;1.50;;;;;;;15.35;70.31;95644.03;5034206;28;20193;-70
2023/10/26 10:21:42;;;;;;;1.73;1.30;;;;;;;15.39;70.23;95644.38;5029839;28;22522;-72
2023/10/26 10:24:08;;;;;;;2.10;1.50;;;;;;;15.39;70.26;95639.88;5034391;28;20429;-71
2023/10/26 10:27:11;;;;;;;1.73;1.40;;;;;;;15.39;70.10;95650.44;5041226;28;20609;-71
2023/10/26 10:29:39;;;;;;;1.60;1.40;;;;;;;15.38;69.96;95659.38;5026126;28;20445;-70
2023/10/26 10:32:05;;;;;;;2.77;1.50;;;;;;;15.40;69.92;95659.97;5022132;28;20428;-70
2023/10/26 10:34:40;;;;;;;1.93;1.70;;;;;;;15.42;69.96;95660.56;5029688;28;21090;-70
2023/10/26 10:37:10;;;;;;;2.60;1.60;;;;;;;15.44;69.92;95666.44;5038085;28;20214;-71
2023/10/26 10:39:36;;;;;;;2.53;1.40;;;;;;;15.46;70.06;95659.13;5035076;28;20421;-71
2023/10/26 10:42:03;;;;;;;2.93;1.70;;;;;;;15.51;70.17;95669.00;5028301;28;20809;-71
2023/10/26 10:44:29;;;;;;;1.90;1.60;;;;;;;15.50;70.30;95668.19;5039249;28;20429;-71
2023/10/26 10:46:54;;;;;;;6.03;1.57;;;;;;;15.54;70.39;95665.09;5036228;28;20453;-71
2023/10/26 10:49:23;;;;;;;1.90;1.70;;;;;;;15.55;70.69;95661.44;5037336;28;20430;-71
2023/10/26 10:51:49;;;;;;;3.13;1.77;;;;;;;15.57;70.74;95668.09;5036397;28;20241;-71
2023/10/26 10:54:17;;;;;;;2.93;1.70;;;;;;;15.60;70.73;95677.44;5036147;28;20473;-72
2023/10/26 10:56:46;;;;;;;3.73;1.80;;;;;;;15.61;70.83;95661.38;5032538;28;21235;-72
2023/10/26 10:59:32;;;;;;;1.77;1.40;;;;;;;15.66;70.85;95660.69;5028097;28;20441;-71
2023/10/26 11:02:13;;;;;;;2.50;1.50;;;;;;;15.71;70.94;95652.09;5034350;28;20589;-71
2023/10/26 11:04:59;;;;;;;2.80;1.23;;;;;;;15.71;70.88;95655.56;5034783;28;20950;-71
2023/10/26 11:07:25;;;;;;;3.37;1.40;;;;;;;15.78;70.88;95651.00;5028175;28;20517;-70
2023/10/26 11:09:57;;;;;;;2.70;1.70;;;;;;;15.85;70.94;95643.00;5042854;28;20429;-71
2023/10/26 11:12:23;;;;;;;3.70;1.90;;;;;;;15.93;70.88;95647.19;5033125;28;20427;-71
2023/10/26 11:14:49;;;;;;;2.23;1.63;;;;;;;15.95;71.04;95643.28;5033500;28;20432;-71
2023/10/26 11:17:19;;;;;;;1.47;1.30;;;;;;;15.99;71.04;95643.66;5035102;28;20318;-71
2023/10/26 11:19:45;;;;;;;3.63;1.23;;;;;;;16.05;70.84;95637.47;5024841;28;20514;-72
2023/10/26 11:22:15;;;;;;;1.50;1.40;;;;;;;16.09;70.83;95643.91;5033454;28;20790;-71
2023/10/26 11:24:40;;;;;;;1.40;1.20;;;;;;;16.13;70.72;95645.06;5031977;28;20176;-71
2023/10/26 11:27:07;;;;;;;2.80;1.40;;;;;;;16.16;70.75;95649.09;5035007;28;20469;-71
2023/10/26 11:29:33;;;;;;;2.50;1.60;;;;;;;16.18;70.63;95651.50;5030430;28;20568;-71
2023/10/26 11:31:58;;;;;;;2.00;1.73;;;;;;;16.14;70.45;95645.88;5035391;28;20430;-72